createdAt,value
2019-03-04T00:00:40.528Z,3.43
2019-03-04T00:03:09.213Z,2.30
2019-03-04T00:05:37.898Z,2.83
2019-03-04T00:08:06.480Z,2.53
2019-03-04T00:10:35.164Z,2.90
2019-03-04T00:13:03.750Z,2.23
2019-03-04T00:15:32.430Z,3.50
2019-03-04T00:18:01.014Z,2.27
2019-03-04T00:20:29.596Z,2.73
2019-03-04T00:22:58.079Z,2.90
2019-03-04T00:25:26.657Z,3.53
2019-03-04T00:27:55.241Z,3.10
2019-03-04T00:30:24.026Z,2.13
2019-03-04T00:32:52.608Z,2.60
2019-03-04T00:35:21.194Z,3.00
2019-03-04T00:37:49.773Z,4.40
2019-03-04T00:40:18.361Z,2.07
2019-03-04T00:42:46.941Z,2.63
2019-03-04T00:45:15.622Z,2.27
2019-03-04T00:47:44.308Z,2.90
2019-03-04T00:50:14.923Z,3.03
2019-03-04T00:52:43.526Z,1.70
2019-03-04T00:55:12.535Z,1.87
2019-03-04T00:57:41.206Z,2.63
2019-03-04T01:00:21.662Z,1.97
2019-03-04T01:02:50.232Z,2.50
2019-03-04T01:05:19.035Z,1.47
2019-03-04T01:07:47.816Z,2.50
2019-03-04T01:10:17.016Z,2.07
2019-03-04T01:12:47.144Z,4.07
2019-03-04T01:15:17.781Z,2.47
2019-03-04T01:17:46.431Z,2.80
2019-03-04T01:20:16.578Z,2.53
2019-03-04T01:22:45.355Z,1.93
2019-03-04T01:25:16.546Z,1.80
2019-03-04T01:27:45.179Z,1.40
2019-03-04T01:30:19.105Z,1.93
2019-03-04T01:32:48.071Z,2.23
2019-03-04T01:35:16.654Z,2.23
2019-03-04T01:37:45.237Z,2.23
2019-03-04T01:40:19.028Z,2.43
2019-03-04T01:42:47.728Z,2.07
2019-03-04T01:45:17.219Z,2.67
2019-03-04T01:47:45.810Z,2.07
2019-03-04T01:50:16.851Z,2.07
2019-03-04T01:52:46.251Z,2.23
2019-03-04T01:55:16.457Z,1.83
2019-03-04T01:57:45.056Z,2.50
2019-03-04T02:00:21.124Z,2.03
2019-03-04T02:02:49.695Z,1.83
2019-03-04T02:05:18.385Z,1.27
2019-03-04T02:07:47.064Z,1.30
2019-03-04T02:10:17.375Z,1.70
2019-03-04T02:12:46.168Z,2.77
2019-03-04T02:15:17.319Z,1.20
2019-03-04T02:17:45.783Z,1.30
2019-03-04T02:20:18.365Z,2.47
2019-03-04T02:22:47.375Z,1.30
2019-03-04T02:25:17.927Z,1.00
2019-03-04T02:27:49.453Z,1.80
2019-03-04T02:30:23.664Z,0.83
2019-03-04T02:32:52.348Z,1.90
2019-03-04T02:35:21.030Z,0.90
2019-03-04T02:37:50.024Z,1.43
2019-03-04T02:40:18.600Z,2.30
2019-03-04T02:42:47.181Z,1.53
2019-03-04T02:45:19.609Z,1.67
2019-03-04T02:47:48.443Z,1.23
2019-03-04T02:50:17.144Z,1.47
2019-03-04T02:52:45.811Z,1.50
2019-03-04T02:55:16.033Z,1.47
2019-03-04T02:57:44.615Z,2.37
2019-03-04T03:00:17.669Z,1.40
2019-03-04T03:02:46.205Z,2.17
2019-03-04T03:05:14.768Z,1.90
2019-03-04T03:07:43.347Z,2.03
2019-03-04T03:10:13.472Z,1.73
2019-03-04T03:12:41.948Z,1.53
2019-03-04T03:15:12.244Z,1.93
2019-03-04T03:17:40.975Z,2.37
2019-03-04T03:20:11.788Z,1.50
2019-03-04T03:22:40.370Z,2.43
2019-03-04T03:25:13.047Z,1.63
2019-03-04T03:27:41.643Z,1.10
2019-03-04T03:30:23.454Z,3.20
2019-03-04T03:32:52.227Z,1.87
2019-03-04T03:35:20.793Z,1.67
2019-03-04T03:37:49.480Z,1.30
2019-03-04T03:40:21.435Z,1.40
2019-03-04T03:42:49.916Z,2.33
2019-03-04T03:45:18.502Z,1.63
2019-03-04T03:47:47.419Z,2.00
2019-03-04T03:50:16.694Z,1.63
2019-03-04T03:52:45.841Z,1.47
2019-03-04T03:55:15.321Z,2.30
2019-03-04T03:57:43.972Z,1.17
2019-03-04T04:00:17.572Z,1.57
2019-03-04T04:02:46.360Z,1.80
2019-03-04T04:05:15.048Z,2.60
2019-03-04T04:07:43.844Z,1.20
2019-03-04T04:10:17.848Z,1.83
2019-03-04T04:12:46.740Z,1.90
2019-03-04T04:15:19.317Z,2.23
2019-03-04T04:17:48.094Z,2.33
2019-03-04T04:20:16.787Z,1.77
2019-03-04T04:22:45.466Z,1.83
2019-03-04T04:25:14.820Z,2.50
2019-03-04T04:27:43.426Z,1.53
2019-03-04T04:30:13.967Z,1.90
2019-03-04T04:32:42.550Z,1.87
2019-03-04T04:35:11.132Z,2.03
2019-03-04T04:37:39.716Z,1.83
2019-03-04T04:40:14.531Z,3.67
2019-03-04T04:42:43.124Z,2.23
2019-03-04T04:45:11.811Z,1.30
2019-03-04T04:47:42.213Z,1.60
2019-03-04T04:50:19.199Z,3.73
2019-03-04T04:52:47.807Z,1.70
2019-03-04T04:55:16.438Z,1.80
2019-03-04T04:57:45.063Z,1.90
2019-03-04T05:00:15.692Z,4.23
2019-03-04T05:02:44.275Z,1.57
2019-03-04T05:05:12.787Z,1.73
2019-03-04T05:07:41.542Z,2.40
2019-03-04T05:10:15.597Z,1.60
2019-03-04T05:12:44.237Z,4.70
2019-03-04T05:15:14.851Z,2.50
2019-03-04T05:17:43.453Z,1.70
2019-03-04T05:20:14.903Z,2.80
2019-03-04T05:22:43.586Z,1.30
2019-03-04T05:25:12.271Z,1.20
2019-03-04T05:27:44.323Z,1.10
2019-03-04T05:30:15.989Z,1.33
2019-03-04T05:32:44.675Z,2.03
2019-03-04T05:35:13.462Z,1.67
2019-03-04T05:37:42.149Z,1.40
2019-03-04T05:40:16.017Z,1.10
2019-03-04T05:42:44.836Z,2.87
2019-03-04T05:45:16.187Z,1.20
2019-03-04T05:47:44.763Z,2.17
2019-03-04T05:50:24.403Z,1.23
2019-03-04T05:52:52.987Z,3.93
2019-03-04T05:55:21.569Z,1.13
2019-03-04T05:57:50.151Z,1.33
2019-03-04T06:00:24.264Z,1.63
2019-03-04T06:02:55.084Z,1.87
2019-03-04T06:05:23.783Z,3.10
2019-03-04T06:07:59.926Z,1.97
2019-03-04T06:10:28.423Z,0.70
2019-03-04T06:12:58.899Z,1.37
2019-03-04T06:15:27.227Z,1.50
2019-03-04T06:17:55.807Z,1.50
2019-03-04T06:20:24.391Z,1.60
2019-03-04T06:22:53.178Z,3.13
2019-03-04T06:25:28.969Z,1.10
2019-03-04T06:27:57.508Z,1.90
2019-03-04T06:30:33.567Z,1.17
2019-03-04T06:33:02.148Z,1.80
2019-03-04T06:35:30.730Z,2.17
2019-03-04T06:37:59.311Z,3.20
2019-03-04T06:40:27.998Z,1.37
2019-03-04T06:42:56.682Z,1.23
2019-03-04T06:45:25.264Z,1.17
2019-03-04T06:47:53.950Z,1.20
2019-03-04T06:50:42.292Z,1.17
2019-03-04T06:53:10.979Z,1.20
2019-03-04T06:55:45.602Z,2.57
2019-03-04T06:58:14.391Z,1.67
2019-03-04T07:00:46.454Z,2.10
2019-03-04T07:03:15.863Z,1.20
2019-03-04T07:05:48.738Z,1.23
2019-03-04T07:08:35.965Z,0.93
2019-03-04T07:11:04.979Z,1.23
2019-03-04T07:13:33.852Z,2.03
2019-03-04T07:16:02.535Z,1.77
2019-03-04T07:18:31.315Z,1.50
2019-03-04T07:21:00.110Z,1.83
2019-03-04T07:23:28.690Z,1.90
2019-03-04T07:25:57.226Z,0.87
2019-03-04T07:28:25.766Z,1.27
2019-03-04T07:30:54.535Z,1.93
2019-03-04T07:33:23.107Z,1.47
2019-03-04T07:35:51.690Z,2.17
2019-03-04T07:38:23.588Z,2.17
2019-03-04T07:40:52.341Z,2.73
2019-03-04T07:43:21.016Z,2.80
2019-03-04T07:45:49.605Z,3.87
2019-03-04T07:48:18.291Z,6.73
2019-03-04T07:50:46.856Z,7.80
2019-03-04T07:53:15.657Z,16.33
2019-03-04T07:55:44.445Z,21.83
2019-03-04T07:58:13.027Z,14.03
2019-03-04T08:00:41.614Z,16.47
2019-03-04T08:03:10.191Z,15.07
2019-03-04T08:05:38.897Z,16.07
2019-03-04T08:08:12.839Z,17.43
2019-03-04T08:10:53.655Z,15.07
2019-03-04T08:13:34.420Z,17.03
2019-03-04T08:16:02.934Z,10.37
2019-03-04T08:18:31.585Z,10.43
2019-03-04T08:21:00.157Z,18.13
2019-03-04T08:23:28.956Z,7.83
2019-03-04T08:26:03.479Z,9.17
2019-03-04T08:28:32.172Z,10.27
2019-03-04T08:31:01.055Z,11.20
2019-03-04T08:33:29.739Z,5.57
2019-03-04T08:35:58.530Z,9.53
2019-03-04T08:38:27.211Z,8.20
2019-03-04T08:40:55.894Z,7.60
2019-03-04T08:43:24.582Z,6.37
2019-03-04T08:45:53.166Z,5.30
2019-03-04T08:48:21.947Z,6.37
2019-03-04T08:50:50.529Z,6.93
2019-03-04T08:53:19.318Z,4.90
2019-03-04T08:55:47.999Z,7.10
2019-03-04T08:58:16.609Z,8.17
2019-03-04T09:00:45.368Z,12.30
2019-03-04T09:03:13.950Z,6.33
2019-03-04T09:05:42.650Z,6.00
2019-03-04T09:08:11.322Z,9.63
2019-03-04T09:10:39.910Z,7.40
2019-03-04T09:13:08.484Z,5.60
2019-03-04T09:15:37.067Z,4.33
2019-03-04T09:18:08.515Z,5.97
2019-03-04T09:20:37.006Z,5.20
2019-03-04T09:23:05.578Z,7.00
2019-03-04T09:25:45.733Z,6.83
2019-03-04T09:28:14.415Z,5.03
2019-03-04T09:30:43.919Z,4.63
2019-03-04T09:33:12.622Z,5.83
2019-03-04T09:35:41.099Z,4.27
2019-03-04T09:38:09.654Z,6.77
2019-03-04T09:40:38.254Z,5.40
2019-03-04T09:43:07.637Z,4.20
2019-03-04T09:45:39.113Z,3.57
2019-03-04T09:48:06.321Z,4.60
2019-03-04T09:50:35.148Z,4.80
2019-03-04T09:53:04.041Z,8.67
2019-03-04T09:55:32.821Z,7.37
2019-03-04T09:58:01.514Z,6.43
2019-03-04T10:00:33.566Z,4.87
2019-03-04T10:03:23.575Z,4.00
2019-03-04T10:06:15.068Z,7.57
2019-03-04T10:08:58.814Z,9.57
2019-03-04T10:11:47.457Z,4.23
2019-03-04T10:14:40.515Z,8.73
2019-03-04T10:17:12.378Z,3.90
2019-03-04T10:19:46.893Z,4.77
2019-03-04T10:22:21.842Z,7.73
2019-03-04T10:25:02.911Z,5.77
2019-03-04T10:27:40.403Z,3.97
2019-03-04T10:30:18.401Z,6.73
2019-03-04T10:33:09.713Z,7.47
2019-03-04T10:35:56.321Z,5.53
2019-03-04T10:38:43.083Z,8.97
2019-03-04T10:41:26.759Z,12.60
2019-03-04T10:44:16.241Z,9.50
2019-03-04T10:46:58.031Z,3.43
2019-03-04T10:49:27.695Z,8.50
2019-03-04T10:51:56.212Z,7.73
2019-03-04T10:54:24.793Z,5.83
2019-03-04T10:56:53.474Z,5.30
2019-03-04T10:59:22.066Z,7.47
2019-03-04T11:01:50.844Z,7.03
2019-03-04T11:04:19.531Z,5.13
2019-03-04T11:06:48.217Z,6.67
2019-03-04T11:09:16.900Z,6.00
2019-03-04T11:11:45.479Z,4.47
2019-03-04T11:14:13.961Z,5.63
2019-03-04T11:16:42.549Z,5.87
2019-03-04T11:19:11.125Z,2.83
2019-03-04T11:21:41.265Z,4.50
2019-03-04T11:24:10.276Z,3.00
2019-03-04T11:26:38.918Z,4.67
2019-03-04T11:29:08.834Z,2.50
2019-03-04T11:31:37.519Z,3.33
2019-03-04T11:34:06.202Z,3.07
2019-03-04T11:36:34.786Z,4.30
2019-03-04T11:39:25.787Z,2.97
2019-03-04T11:41:54.376Z,3.33
2019-03-04T11:44:23.063Z,3.43
2019-03-04T11:46:51.792Z,6.00
2019-03-04T11:49:20.531Z,2.73
2019-03-04T11:51:49.120Z,2.93
2019-03-04T11:54:17.798Z,2.53
2019-03-04T11:56:46.696Z,7.00
2019-03-04T11:59:15.273Z,2.80
2019-03-04T12:01:45.480Z,3.40
2019-03-04T12:04:14.071Z,2.97
2019-03-04T12:06:43.280Z,5.97
2019-03-04T12:09:13.693Z,3.43
2019-03-04T12:11:42.275Z,3.73
2019-03-04T12:14:10.961Z,4.93
2019-03-04T12:16:39.541Z,4.47
2019-03-04T12:19:08.126Z,3.10
2019-03-04T12:21:36.808Z,2.97
2019-03-04T12:24:05.341Z,3.27
2019-03-04T12:26:33.972Z,5.27
2019-03-04T12:29:02.656Z,4.23
2019-03-04T12:31:32.877Z,2.87
2019-03-04T12:34:01.563Z,3.40
2019-03-04T12:36:30.200Z,3.00
2019-03-04T12:38:58.940Z,3.10
2019-03-04T12:41:27.462Z,2.90
2019-03-04T12:43:56.118Z,4.53
2019-03-04T12:46:24.679Z,5.20
2019-03-04T12:48:53.260Z,4.43
2019-03-04T12:51:23.376Z,3.33
2019-03-04T12:53:52.250Z,14.83
2019-03-04T12:56:20.848Z,4.00
2019-03-04T12:58:49.417Z,5.07
2019-03-04T13:01:18.013Z,9.10
2019-03-04T13:03:46.595Z,7.27
2019-03-04T13:06:15.188Z,4.43
2019-03-04T13:08:43.862Z,6.43
2019-03-04T13:11:12.459Z,7.37
2019-03-04T13:13:41.030Z,6.27
2019-03-04T13:16:09.499Z,5.07
2019-03-04T13:18:38.098Z,6.37
2019-03-04T13:21:06.681Z,6.70
2019-03-04T13:23:35.366Z,5.40
2019-03-04T13:26:04.052Z,4.27
2019-03-04T13:28:32.734Z,4.80
2019-03-04T13:31:01.423Z,3.57
2019-03-04T13:33:29.980Z,4.63
2019-03-04T13:35:58.581Z,4.00
2019-03-04T13:38:27.360Z,4.60
2019-03-04T13:40:56.148Z,4.30
2019-03-04T13:43:24.849Z,3.30
2019-03-04T13:45:53.518Z,5.97
2019-03-04T13:48:21.999Z,4.57
2019-03-04T13:50:50.490Z,6.00
2019-03-04T13:53:19.159Z,4.23
2019-03-04T13:55:47.948Z,7.13
2019-03-04T13:58:16.529Z,5.70
2019-03-04T14:00:45.214Z,9.13
2019-03-04T14:03:14.598Z,8.17
2019-03-04T14:05:43.205Z,5.80
2019-03-04T14:08:11.732Z,7.77
2019-03-04T14:10:45.511Z,10.20
2019-03-04T14:13:14.063Z,8.10
2019-03-04T14:15:47.868Z,17.97
2019-03-04T14:18:16.450Z,13.43
2019-03-04T14:20:45.037Z,9.37
2019-03-04T14:23:13.822Z,13.80
2019-03-04T14:25:42.800Z,17.17
2019-03-04T14:28:11.292Z,14.10
2019-03-04T14:30:40.023Z,28.23
2019-03-04T14:33:08.870Z,22.17
2019-03-04T14:35:37.653Z,34.90
2019-03-04T14:38:06.339Z,31.73
2019-03-04T14:40:35.128Z,29.30
2019-03-04T14:43:03.815Z,37.73
2019-03-04T14:45:32.498Z,34.33
2019-03-04T14:48:01.183Z,32.57
2019-03-04T14:50:30.074Z,31.33
2019-03-04T14:52:58.857Z,24.27
2019-03-04T14:55:32.468Z,15.37
2019-03-04T14:58:02.111Z,21.47
2019-03-04T15:00:40.679Z,15.50
2019-03-04T15:03:19.154Z,19.53
2019-03-04T15:05:39.684Z,18.70
2019-03-04T15:08:08.478Z,22.47
2019-03-04T15:10:37.296Z,16.50
2019-03-04T15:13:05.951Z,23.30
2019-03-04T15:15:35.258Z,17.87
2019-03-04T15:18:03.933Z,15.40
2019-03-04T15:20:33.628Z,26.37
2019-03-04T15:23:02.423Z,17.63
2019-03-04T15:25:35.816Z,22.13
2019-03-04T15:28:21.705Z,24.20
2019-03-04T15:30:56.021Z,24.73
2019-03-04T15:33:24.705Z,19.43
2019-03-04T15:35:53.327Z,30.53
2019-03-04T15:38:22.180Z,26.67
2019-03-04T15:40:50.966Z,30.07
2019-03-04T15:43:19.751Z,25.63
2019-03-04T15:45:49.956Z,17.07
2019-03-04T15:48:20.768Z,25.37
2019-03-04T15:50:49.596Z,23.77
2019-03-04T15:53:18.484Z,27.87
2019-03-04T15:55:47.169Z,21.30
2019-03-04T15:58:15.856Z,14.30
2019-03-04T16:00:44.777Z,25.13
2019-03-04T16:03:13.532Z,22.23
2019-03-04T16:05:42.121Z,14.07
2019-03-04T16:08:10.796Z,11.30
2019-03-04T16:10:39.586Z,16.83
2019-03-04T16:13:08.873Z,12.57
2019-03-04T16:15:43.711Z,16.00
2019-03-04T16:18:12.187Z,12.97
2019-03-04T16:20:40.869Z,13.43
2019-03-04T16:23:09.508Z,15.73
2019-03-04T16:25:38.254Z,16.50
2019-03-04T16:28:21.481Z,21.13
2019-03-04T16:30:50.777Z,13.33
2019-03-04T16:33:19.568Z,21.70
2019-03-04T16:35:48.353Z,20.87
2019-03-04T16:38:17.247Z,15.13
2019-03-04T16:40:46.020Z,18.47
2019-03-04T16:43:14.913Z,20.80
2019-03-04T16:45:43.616Z,11.13
2019-03-04T16:48:12.184Z,17.70
2019-03-04T16:50:42.524Z,23.17
2019-03-04T16:53:30.023Z,19.77
2019-03-04T16:55:58.721Z,19.67
2019-03-04T16:58:27.704Z,22.33
2019-03-04T17:00:56.795Z,21.47
2019-03-04T17:03:25.585Z,14.43
2019-03-04T17:05:54.164Z,18.60
2019-03-04T17:08:22.747Z,18.70
2019-03-04T17:10:51.739Z,13.67
2019-03-04T17:13:20.325Z,15.13
2019-03-04T17:15:49.004Z,19.70
2019-03-04T17:18:17.799Z,20.23
2019-03-04T17:20:46.372Z,17.30
2019-03-04T17:23:14.992Z,17.73
2019-03-04T17:25:43.639Z,18.80
2019-03-04T17:28:12.331Z,20.27
2019-03-04T17:30:41.217Z,16.67
2019-03-04T17:33:10.000Z,14.73
2019-03-04T17:35:38.592Z,14.73
2019-03-04T17:38:07.370Z,17.67
2019-03-04T17:40:36.185Z,13.50
2019-03-04T17:43:04.753Z,16.93
2019-03-04T17:45:34.656Z,17.83
2019-03-04T17:48:03.346Z,18.07
2019-03-04T17:50:34.893Z,15.53
2019-03-04T17:53:06.032Z,11.77
2019-03-04T17:55:34.620Z,16.77
2019-03-04T17:58:03.306Z,13.93
2019-03-04T18:00:32.270Z,15.00
2019-03-04T18:03:00.836Z,11.00
2019-03-04T18:05:29.776Z,9.63
2019-03-04T18:07:58.535Z,10.13
2019-03-04T18:10:27.252Z,12.17
2019-03-04T18:12:58.048Z,13.27
2019-03-04T18:15:29.724Z,12.20
2019-03-04T18:17:58.406Z,14.03
2019-03-04T18:20:34.017Z,11.33
2019-03-04T18:22:57.329Z,10.50
2019-03-04T18:25:29.281Z,14.07
2019-03-04T18:28:01.240Z,9.97
2019-03-04T18:30:33.200Z,12.60
2019-03-04T18:33:26.467Z,11.10
2019-03-04T18:36:18.619Z,14.40
2019-03-04T18:39:19.531Z,9.73
2019-03-04T18:41:51.388Z,8.33
2019-03-04T18:44:41.577Z,10.07
2019-03-04T18:47:28.695Z,8.97
2019-03-04T18:49:57.277Z,9.77
2019-03-04T18:52:25.860Z,11.20
2019-03-04T18:54:54.543Z,9.80
2019-03-04T18:57:23.112Z,9.50
2019-03-04T18:59:51.710Z,11.63
2019-03-04T19:02:20.391Z,10.87
2019-03-04T19:04:48.974Z,9.93
2019-03-04T19:07:17.556Z,9.93
2019-03-04T19:09:46.264Z,9.20
2019-03-04T19:12:15.033Z,8.23
2019-03-04T19:14:43.616Z,11.37
2019-03-04T19:17:12.295Z,6.77
2019-03-04T19:19:41.287Z,7.57
2019-03-04T19:22:09.868Z,9.17
2019-03-04T19:24:38.435Z,7.57
2019-03-04T19:27:07.037Z,8.43
2019-03-04T19:29:35.719Z,7.93
2019-03-04T19:32:04.302Z,8.83
2019-03-04T19:34:32.993Z,8.63
2019-03-04T19:37:01.682Z,7.43
2019-03-04T19:39:30.465Z,7.67
2019-03-04T19:41:59.151Z,12.30
2019-03-04T19:44:27.824Z,10.13
2019-03-04T19:46:56.493Z,16.53
2019-03-04T19:49:25.195Z,10.80
2019-03-04T19:51:53.802Z,13.90
2019-03-04T19:54:22.462Z,17.67
2019-03-04T19:56:51.150Z,16.40
2019-03-04T19:59:19.829Z,17.13
2019-03-04T20:01:48.412Z,17.27
2019-03-04T20:04:17.101Z,19.33
2019-03-04T20:06:45.754Z,21.47
2019-03-04T20:09:14.392Z,22.37
2019-03-04T20:11:42.945Z,20.93
2019-03-04T20:14:11.525Z,19.97
2019-03-04T20:16:40.520Z,16.53
2019-03-04T20:19:09.231Z,17.27
2019-03-04T20:21:37.786Z,14.40
2019-03-04T20:24:06.469Z,12.80
2019-03-04T20:26:35.269Z,14.03
2019-03-04T20:29:04.044Z,11.17
2019-03-04T20:31:32.628Z,16.97
2019-03-04T20:34:01.193Z,11.17
2019-03-04T20:36:29.899Z,11.20
2019-03-04T20:38:58.476Z,11.47
2019-03-04T20:41:27.368Z,10.97
2019-03-04T20:43:56.262Z,12.73
2019-03-04T20:46:25.048Z,11.60
2019-03-04T20:48:53.836Z,10.57
2019-03-04T20:51:22.827Z,7.83
2019-03-04T20:53:51.708Z,9.93
2019-03-04T20:56:20.601Z,11.77
2019-03-04T20:58:49.184Z,8.80
2019-03-04T21:01:18.158Z,8.87
2019-03-04T21:03:46.862Z,7.83
2019-03-04T21:06:15.651Z,10.80
2019-03-04T21:08:44.334Z,8.63
2019-03-04T21:11:13.015Z,7.93
2019-03-04T21:13:41.603Z,10.17
2019-03-04T21:16:10.282Z,11.10
2019-03-04T21:18:38.861Z,10.47
2019-03-04T21:21:07.853Z,8.73
2019-03-04T21:23:36.544Z,6.83
2019-03-04T21:26:10.935Z,17.40
2019-03-04T21:28:59.408Z,21.80
2019-03-04T21:31:39.560Z,24.93
2019-03-04T21:34:11.623Z,24.73
2019-03-04T21:36:58.126Z,27.10
2019-03-04T21:39:34.605Z,27.73
2019-03-04T21:42:12.807Z,28.03
2019-03-04T21:45:02.798Z,28.87
2019-03-04T21:47:40.792Z,26.50
2019-03-04T21:50:34.254Z,29.13
2019-03-04T21:53:11.291Z,32.07
2019-03-04T21:55:43.196Z,31.37
2019-03-04T21:58:12.142Z,27.63
2019-03-04T22:00:46.103Z,27.47
2019-03-04T22:03:21.039Z,26.63
2019-03-04T22:05:50.852Z,25.80
2019-03-04T22:08:19.728Z,23.97
2019-03-04T22:10:48.804Z,26.73
2019-03-04T22:13:17.619Z,25.97
2019-03-04T22:15:46.293Z,27.60
2019-03-04T22:18:15.184Z,25.97
2019-03-04T22:20:43.968Z,21.13
2019-03-04T22:23:12.657Z,26.07
2019-03-04T22:25:41.355Z,25.70
2019-03-04T22:28:10.026Z,21.97
2019-03-04T22:30:38.599Z,21.03
2019-03-04T22:33:07.412Z,19.53
2019-03-04T22:35:35.990Z,23.63
2019-03-04T22:38:04.902Z,21.27
2019-03-04T22:40:34.167Z,18.20
2019-03-04T22:43:09.595Z,17.53
2019-03-04T22:45:36.339Z,20.33
2019-03-04T22:48:05.042Z,19.90
2019-03-04T22:50:35.405Z,14.30
2019-03-04T22:53:04.239Z,19.73
2019-03-04T22:55:45.027Z,18.27
2019-03-04T22:58:28.223Z,15.13
2019-03-04T23:00:56.219Z,16.63
2019-03-04T23:03:27.274Z,16.00
2019-03-04T23:06:01.758Z,15.87
2019-03-04T23:08:30.441Z,13.13
2019-03-04T23:10:59.229Z,16.10
2019-03-04T23:13:46.450Z,13.90
2019-03-04T23:16:18.275Z,12.17
2019-03-04T23:18:47.103Z,12.70
2019-03-04T23:21:15.791Z,13.93
2019-03-04T23:23:44.467Z,13.77
2019-03-04T23:26:16.551Z,12.20
2019-03-04T23:28:45.317Z,11.33
2019-03-04T23:31:14.360Z,10.43
2019-03-04T23:33:43.503Z,9.83
2019-03-04T23:36:12.189Z,11.47
2019-03-04T23:38:40.754Z,13.53
2019-03-04T23:41:09.557Z,11.33
2019-03-04T23:43:38.346Z,9.00
2019-03-04T23:46:07.030Z,8.80
2019-03-04T23:48:35.821Z,9.07
2019-03-04T23:51:04.509Z,11.33
2019-03-04T23:53:33.180Z,8.10
2019-03-04T23:56:01.969Z,11.97
2019-03-04T23:58:30.874Z,9.03
